Time;durP1;ratioP1;P1;durP2;ratioP2;P2;SDS_P1;SDS_P2;PMS_P1;PMS_P2;Temp;Humidity;BMP_temperature;BMP_pressure;BME280_temperature;BME280_humidity;BME280_pressure;Samples;Min_cycle;Max_cycle;Signal;HPM_P1;HPM_P2
2023/09/23 00:01:04;;;;;;;7.18;2.90;;;20.80;99.90;;;;;;5025937;28;20500;-78
2023/09/23 00:03:33;;;;;;;10.52;3.33;;;20.70;99.90;;;;;;5049962;28;20707;-78
2023/09/23 00:06:02;;;;;;;10.75;3.33;;;20.80;99.90;;;;;;5079663;28;20036;-78
2023/09/23 00:08:29;;;;;;;10.32;2.83;;;20.70;99.90;;;;;;5075643;28;20047;-78
2023/09/23 00:10:56;;;;;;;7.53;3.17;;;20.70;99.90;;;;;;5076704;28;20141;-77
2023/09/23 00:13:25;;;;;;;11.93;4.40;;;20.70;99.90;;;;;;5071611;28;20542;-77
2023/09/23 00:15:52;;;;;;;10.70;4.20;;;20.70;99.90;;;;;;5075645;28;20035;-78
2023/09/23 00:18:19;;;;;;;9.48;3.35;;;20.70;99.90;;;;;;5067579;28;22539;-78
2023/09/23 00:20:47;;;;;;;10.60;3.50;;;20.60;99.90;;;;;;5092582;27;20043;-78
2023/09/23 00:23:14;;;;;;;8.18;3.20;;;20.60;99.90;;;;;;5073528;28;20090;-78
2023/09/23 00:25:46;;;;;;;11.15;3.35;;;20.60;99.90;;;;;;5085848;28;20054;-77
2023/09/23 00:28:14;;;;;;;8.63;3.15;;;20.60;99.90;;;;;;5093459;27;20102;-78
2023/09/23 00:30:45;;;;;;;10.60;3.95;;;20.50;99.90;;;;;;5068876;28;20040;-78
2023/09/23 00:33:16;;;;;;;9.70;3.43;;;20.60;99.90;;;;;;5087416;28;20141;-78
2023/09/23 00:35:47;;;;;;;9.38;3.33;;;20.50;99.90;;;;;;5064038;28;20052;-77
2023/09/23 00:38:15;;;;;;;9.20;3.35;;;20.50;99.90;;;;;;5076098;28;20074;-78
2023/09/23 00:40:44;;;;;;;8.93;3.88;;;20.50;99.90;;;;;;5073301;28;22464;-78
2023/09/23 00:43:17;;;;;;;9.23;3.70;;;20.50;99.90;;;;;;5075587;28;20044;-78
2023/09/23 00:45:51;;;;;;;8.02;3.58;;;20.50;99.90;;;;;;5071624;28;20047;-77
2023/09/23 00:48:20;;;;;;;6.45;3.70;;;20.50;99.90;;;;;;5077966;28;20142;-78
2023/09/23 00:50:52;;;;;;;11.48;4.13;;;20.50;99.90;;;;;;5055007;28;20847;-77
2023/09/23 00:53:21;;;;;;;14.73;4.18;;;20.50;99.90;;;;;;5071499;28;20040;-78
2023/09/23 00:55:55;;;;;;;9.80;3.40;;;20.50;99.90;;;;;;5093462;27;21035;-77
2023/09/23 00:58:24;;;;;;;8.05;3.85;;;20.40;99.90;;;;;;5090061;27;20571;-78
2023/09/23 01:00:54;;;;;;;8.85;3.65;;;20.40;99.90;;;;;;5076641;28;20212;-78
2023/09/23 01:03:22;;;;;;;11.68;3.78;;;20.40;99.90;;;;;;5074100;28;20174;-77
2023/09/23 01:06:08;;;;;;;7.68;3.47;;;20.50;99.90;;;;;;5074727;28;20494;-78
2023/09/23 01:08:38;;;;;;;10.98;3.83;;;20.50;99.90;;;;;;5084332;28;20044;-78
2023/09/23 01:11:07;;;;;;;10.27;3.55;;;20.50;99.90;;;;;;5078852;28;21215;-78
2023/09/23 01:13:35;;;;;;;8.50;3.80;;;20.50;99.90;;;;;;5074454;28;20072;-77
2023/09/23 01:16:08;;;;;;;11.63;3.63;;;20.50;99.90;;;;;;5078017;28;20068;-77
2023/09/23 01:18:36;;;;;;;10.40;3.10;;;20.50;99.90;;;;;;5071850;28;20048;-77
2023/09/23 01:21:03;;;;;;;11.23;4.00;;;20.50;99.90;;;;;;5052519;28;20507;-77
2023/09/23 01:23:34;;;;;;;11.02;3.80;;;20.50;99.90;;;;;;5067941;28;20119;-77
2023/09/23 01:26:02;;;;;;;8.70;3.55;;;20.40;99.90;;;;;;5084763;28;20044;-78
2023/09/23 01:28:32;;;;;;;10.82;3.67;;;20.50;99.90;;;;;;5076136;28;20041;-77
2023/09/23 01:31:02;;;;;;;12.23;3.45;;;20.40;99.90;;;;;;5077231;28;20052;-78
2023/09/23 01:33:30;;;;;;;8.68;3.42;;;20.40;99.90;;;;;;5073194;28;20045;-77
2023/09/23 01:36:02;;;;;;;8.38;3.38;;;20.40;99.90;;;;;;5073069;28;20055;-77
2023/09/23 01:38:31;;;;;;;15.30;5.45;;;20.40;99.90;;;;;;5078629;28;20055;-78
2023/09/23 01:41:02;;;;;;;9.63;3.10;;;20.40;99.90;;;;;;5082002;28;20055;-78
2023/09/23 01:43:30;;;;;;;;;;;20.40;99.90;;;;;;5086715;28;20051;-78
2023/09/23 01:46:03;;;;;;;13.10;3.70;;;20.40;99.90;;;;;;5063274;28;19928;-77
2023/09/23 01:48:32;;;;;;;11.43;3.95;;;20.40;99.90;;;;;;5072416;28;20048;-77
2023/09/23 01:50:59;;;;;;;8.63;3.35;;;20.40;99.90;;;;;;5090348;27;20135;-77
2023/09/23 01:53:28;;;;;;;14.82;4.28;;;20.40;99.90;;;;;;5073944;28;20055;-78
2023/09/23 01:55:55;;;;;;;6.05;3.60;;;20.40;99.90;;;;;;5070319;28;20048;-78
2023/09/23 01:58:23;;;;;;;9.48;3.72;;;20.40;99.90;;;;;;5061933;28;20055;-78
2023/09/23 02:00:51;;;;;;;15.55;4.22;;;20.40;99.90;;;;;;5060497;28;22508;-77
2023/09/23 02:03:20;;;;;;;14.85;4.07;;;20.40;99.90;;;;;;5079293;28;20082;-77
2023/09/23 02:05:47;;;;;;;7.72;4.07;;;20.40;99.90;;;;;;5065034;28;20059;-77
2023/09/23 02:08:15;;;;;;;11.02;3.75;;;20.40;99.90;;;;;;5058000;28;20040;-77
2023/09/23 02:10:44;;;;;;;14.65;4.10;;;20.40;99.90;;;;;;5078679;28;22586;-77
2023/09/23 02:13:12;;;;;;;16.90;4.50;;;20.40;99.90;;;;;;5060031;28;20038;-77
2023/09/23 02:15:39;;;;;;;11.75;4.28;;;20.40;99.90;;;;;;5068746;28;22420;-77
2023/09/23 02:18:06;;;;;;;12.10;3.97;;;20.40;99.90;;;;;;5074837;28;20044;-77
2023/09/23 02:20:34;;;;;;;8.43;3.70;;;20.40;99.90;;;;;;5077145;28;20040;-77
2023/09/23 02:23:03;;;;;;;12.60;3.80;;;20.40;99.90;;;;;;5073309;28;20147;-77
2023/09/23 02:25:30;;;;;;;7.95;4.05;;;20.40;99.90;;;;;;5068013;28;20103;-78
2023/09/23 02:27:57;;;;;;;9.00;3.72;;;20.40;99.90;;;;;;5059592;28;20040;-77
2023/09/23 02:30:25;;;;;;;11.63;4.22;;;20.40;99.90;;;;;;5061512;28;20048;-77
2023/09/23 02:32:52;;;;;;;9.45;3.83;;;20.40;99.90;;;;;;5091243;28;20051;-77
2023/09/23 02:35:20;;;;;;;10.63;4.68;;;20.40;99.90;;;;;;5074308;28;20126;-77
2023/09/23 02:37:48;;;;;;;13.30;4.72;;;20.40;99.90;;;;;;5077819;28;20063;-77
2023/09/23 02:40:17;;;;;;;8.95;4.07;;;20.40;99.90;;;;;;5083266;28;20186;-77
2023/09/23 02:42:46;;;;;;;17.30;4.95;;;20.40;99.90;;;;;;5077218;28;20040;-77
2023/09/23 02:45:16;;;;;;;12.07;4.00;;;20.40;99.90;;;;;;5069115;28;23266;-77
2023/09/23 02:47:45;;;;;;;9.98;4.63;;;20.30;99.90;;;;;;5091414;28;20056;-77
2023/09/23 02:50:13;;;;;;;12.52;4.38;;;20.30;99.90;;;;;;5090546;28;20063;-77
2023/09/23 02:52:44;;;;;;;11.52;4.40;;;20.30;99.90;;;;;;5091250;28;20043;-77
2023/09/23 02:55:14;;;;;;;14.00;5.10;;;20.30;99.90;;;;;;5060244;28;20059;-77
2023/09/23 02:57:46;;;;;;;9.45;4.38;;;20.30;99.90;;;;;;5076220;28;20162;-77
2023/09/23 03:00:17;;;;;;;9.60;4.47;;;20.20;99.90;;;;;;5057899;28;20060;-77
2023/09/23 03:02:53;;;;;;;9.77;3.95;;;20.20;99.90;;;;;;5087449;28;20051;-77
2023/09/23 03:05:27;;;;;;;12.50;5.03;;;20.30;99.90;;;;;;5088751;28;20059;-78
2023/09/23 03:07:57;;;;;;;9.43;3.70;;;20.20;99.90;;;;;;5051004;28;20486;-78
2023/09/23 03:10:39;;;;;;;12.80;5.07;;;20.20;99.90;;;;;;5070488;28;20127;-78
2023/09/23 03:13:11;;;;;;;15.27;5.28;;;20.20;99.90;;;;;;5061637;28;20083;-78
2023/09/23 03:15:48;;;;;;;16.52;5.30;;;20.20;99.90;;;;;;5072274;28;20067;-78
2023/09/23 03:18:17;;;;;;;12.13;4.22;;;20.20;99.90;;;;;;5071683;28;20043;-78
2023/09/23 03:20:45;;;;;;;11.95;4.38;;;20.20;99.90;;;;;;5081024;28;20035;-78
2023/09/23 03:23:12;;;;;;;12.43;4.43;;;20.20;99.90;;;;;;5074447;28;20056;-79
2023/09/23 03:25:47;;;;;;;12.77;4.30;;;20.10;99.90;;;;;;5073333;28;20044;-79
2023/09/23 03:28:16;;;;;;;14.15;5.65;;;20.10;99.90;;;;;;5076267;28;20051;-79
2023/09/23 03:30:47;;;;;;;18.45;4.60;;;20.20;99.90;;;;;;5081318;28;20096;-79
2023/09/23 03:33:21;;;;;;;12.13;4.65;;;20.20;99.90;;;;;;5075146;28;20049;-79
2023/09/23 03:35:49;;;;;;;12.02;5.60;;;20.10;99.90;;;;;;5074908;28;20082;-79
2023/09/23 03:38:17;;;;;;;19.50;6.65;;;20.10;99.90;;;;;;5089813;27;20048;-79
2023/09/23 03:41:02;;;;;;;12.90;4.88;;;20.10;99.90;;;;;;5055887;28;20552;-79
2023/09/23 03:43:30;;;;;;;11.65;4.57;;;20.20;99.90;;;;;;5086101;28;22602;-78
2023/09/23 03:45:57;;;;;;;13.27;4.93;;;20.20;99.90;;;;;;5072047;28;20048;-78
2023/09/23 03:48:25;;;;;;;14.40;4.80;;;20.20;99.90;;;;;;5054274;28;20051;-78
2023/09/23 03:50:53;;;;;;;12.43;5.07;;;20.20;99.90;;;;;;5082419;28;20044;-78
2023/09/23 03:53:21;;;;;;;11.00;4.38;;;20.20;99.90;;;;;;5070248;28;20051;-78
2023/09/23 03:55:52;;;;;;;10.50;5.05;;;20.20;99.90;;;;;;5079057;28;20052;-78
2023/09/23 03:58:19;;;;;;;9.75;4.47;;;20.20;99.90;;;;;;5059305;28;20053;-78
2023/09/23 04:00:47;;;;;;;16.40;5.38;;;20.20;99.90;;;;;;5070124;28;22807;-78
2023/09/23 04:03:17;;;;;;;13.95;4.65;;;20.10;99.90;;;;;;5071426;28;20529;-78
2023/09/23 04:05:57;;;;;;;13.30;4.78;;;20.10;99.90;;;;;;5070099;28;20596;-78
2023/09/23 04:08:26;;;;;;;15.25;5.68;;;20.10;99.90;;;;;;5052909;28;20083;-78
2023/09/23 04:10:53;;;;;;;13.00;5.22;;;20.10;99.90;;;;;;5072641;28;20048;-78
2023/09/23 04:13:20;;;;;;;16.15;6.32;;;20.10;99.90;;;;;;5073703;28;22555;-78
2023/09/23 04:15:48;;;;;;;12.55;5.03;;;20.00;99.90;;;;;;5076120;28;22283;-78
2023/09/23 04:18:18;;;;;;;16.75;5.40;;;20.00;99.90;;;;;;5075845;28;20051;-78
2023/09/23 04:20:48;;;;;;;15.23;6.50;;;20.10;99.90;;;;;;5061028;28;22415;-78
2023/09/23 04:23:15;;;;;;;10.63;4.88;;;20.10;99.90;;;;;;5064766;28;20059;-78
2023/09/23 04:25:42;;;;;;;15.88;4.90;;;20.10;99.90;;;;;;5067053;28;20404;-78
2023/09/23 04:28:10;;;;;;;12.45;5.57;;;20.10;99.90;;;;;;5076136;28;20435;-78
2023/09/23 04:30:37;;;;;;;10.00;4.75;;;20.10;99.90;;;;;;5083767;28;20406;-79
2023/09/23 04:33:04;;;;;;;12.48;4.25;;;20.10;99.90;;;;;;5084024;28;20049;-78
2023/09/23 04:35:32;;;;;;;13.95;4.32;;;20.10;99.90;;;;;;5082821;28;20040;-78
2023/09/23 04:38:00;;;;;;;13.15;4.13;;;20.10;99.90;;;;;;5081717;28;20047;-79
2023/09/23 04:40:27;;;;;;;9.18;3.95;;;20.10;99.90;;;;;;5072285;28;20131;-79
2023/09/23 04:42:54;;;;;;;10.35;3.88;;;20.10;99.90;;;;;;5079352;28;20814;-78
2023/09/23 04:45:23;;;;;;;9.93;4.05;;;20.10;99.90;;;;;;5088911;28;20055;-79
2023/09/23 04:47:51;;;;;;;13.50;3.30;;;20.10;99.90;;;;;;5073953;28;20049;-78
2023/09/23 04:50:19;;;;;;;11.45;3.03;;;20.10;99.90;;;;;;5082217;28;20044;-79
2023/09/23 04:52:46;;;;;;;13.02;3.33;;;20.10;99.90;;;;;;5070953;28;22517;-78
2023/09/23 04:55:14;;;;;;;13.05;2.92;;;20.10;99.90;;;;;;5081484;28;22451;-78
2023/09/23 04:57:41;;;;;;;9.43;2.97;;;20.10;99.90;;;;;;5076069;28;20055;-78
2023/09/23 05:00:14;;;;;;;7.13;2.90;;;20.10;99.90;;;;;;5072539;28;20060;-78
2023/09/23 05:02:41;;;;;;;12.60;3.38;;;20.10;99.90;;;;;;5072268;28;20061;-78
2023/09/23 05:05:12;;;;;;;7.63;2.67;;;20.20;99.90;;;;;;5083645;28;20037;-78
2023/09/23 05:07:39;;;;;;;8.85;2.97;;;20.20;99.90;;;;;;5055126;28;20058;-78
2023/09/23 05:10:09;;;;;;;11.45;2.70;;;20.10;99.90;;;;;;5058072;28;20040;-78
2023/09/23 05:12:36;;;;;;;8.88;2.80;;;20.20;99.90;;;;;;5077969;28;22435;-78
2023/09/23 05:15:04;;;;;;;9.57;2.90;;;20.20;99.90;;;;;;5060277;28;20052;-78
2023/09/23 05:17:31;;;;;;;7.65;2.95;;;20.20;99.90;;;;;;5084060;28;20510;-78
2023/09/23 05:19:58;;;;;;;8.65;3.25;;;20.20;99.90;;;;;;5088513;28;20113;-78
2023/09/23 05:22:25;;;;;;;12.52;3.22;;;20.20;99.90;;;;;;5093185;27;22545;-77
2023/09/23 05:24:57;;;;;;;10.68;2.63;;;20.20;99.90;;;;;;5055879;28;20060;-78
2023/09/23 05:27:24;;;;;;;8.48;2.70;;;20.20;99.90;;;;;;5073516;28;20506;-78
2023/09/23 05:29:53;;;;;;;8.45;2.90;;;20.20;99.90;;;;;;5073523;28;20032;-78
2023/09/23 05:32:20;;;;;;;13.50;4.10;;;20.20;99.90;;;;;;5072475;28;20044;-78
2023/09/23 05:34:51;;;;;;;8.77;2.88;;;20.20;99.90;;;;;;5088270;27;20040;-78
2023/09/23 05:37:19;;;;;;;13.35;3.63;;;20.20;99.90;;;;;;5072370;28;20047;-78
2023/09/23 05:39:46;;;;;;;7.85;3.35;;;20.20;99.90;;;;;;5085907;28;20041;-78
2023/09/23 05:42:15;;;;;;;12.27;4.15;;;20.20;99.90;;;;;;5077821;28;22506;-78
2023/09/23 05:44:43;;;;;;;9.63;3.10;;;20.20;99.90;;;;;;5089861;28;20072;-79
2023/09/23 05:47:11;;;;;;;10.50;4.40;;;20.20;99.90;;;;;;5077781;28;20048;-78
2023/09/23 05:49:38;;;;;;;13.38;3.65;;;20.20;99.90;;;;;;5075914;28;20419;-78
2023/09/23 05:52:06;;;;;;;10.10;3.90;;;20.20;99.90;;;;;;5071431;28;22468;-79
2023/09/23 05:54:33;;;;;;;9.55;4.03;;;20.20;99.90;;;;;;5074570;28;20047;-78
2023/09/23 05:57:00;;;;;;;7.80;3.10;;;20.20;99.90;;;;;;5063859;28;20479;-78
2023/09/23 05:59:28;;;;;;;8.30;3.10;;;20.20;99.90;;;;;;5089552;28;20518;-78
2023/09/23 06:01:55;;;;;;;9.63;3.40;;;20.20;99.90;;;;;;5076988;28;20415;-79
2023/09/23 06:04:22;;;;;;;6.63;2.92;;;20.20;99.90;;;;;;5052900;28;20048;-79
2023/09/23 06:06:49;;;;;;;9.70;3.35;;;20.20;99.90;;;;;;5075876;28;20071;-79
2023/09/23 06:09:16;;;;;;;6.88;2.67;;;20.20;99.90;;;;;;5072682;28;20872;-79
2023/09/23 06:11:44;;;;;;;11.20;2.78;;;20.20;99.90;;;;;;5083575;28;22443;-79
2023/09/23 06:14:11;;;;;;;11.13;3.40;;;20.20;99.90;;;;;;5070765;28;22580;-79
2023/09/23 06:16:39;;;;;;;10.52;2.55;;;20.20;99.90;;;;;;5063099;28;22479;-79
2023/09/23 06:19:06;;;;;;;12.32;3.20;;;20.20;99.90;;;;;;5077615;28;20131;-79
2023/09/23 06:21:36;;;;;;;11.30;3.30;;;20.20;99.90;;;;;;5089816;28;20064;-79
2023/09/23 06:24:03;;;;;;;9.45;3.10;;;20.20;99.90;;;;;;5063657;28;22257;-79
2023/09/23 06:26:30;;;;;;;11.48;3.45;;;20.20;99.90;;;;;;5066314;28;20821;-79
2023/09/23 06:28:58;;;;;;;7.95;2.88;;;20.20;99.90;;;;;;5092186;28;22544;-79
2023/09/23 06:31:25;;;;;;;10.70;4.43;;;20.20;99.90;;;;;;5063704;28;20487;-79
2023/09/23 06:33:53;;;;;;;14.40;4.05;;;20.20;99.90;;;;;;5072172;28;20048;-80
2023/09/23 06:36:20;;;;;;;9.77;2.70;;;20.20;99.90;;;;;;5068389;28;20147;-80
2023/09/23 06:38:47;;;;;;;12.65;3.25;;;20.20;99.90;;;;;;5081788;28;20135;-80
2023/09/23 06:41:14;;;;;;;10.80;3.28;;;20.10;99.90;;;;;;5075516;28;20048;-79
2023/09/23 06:43:41;;;;;;;9.40;4.15;;;20.10;99.90;;;;;;5070276;28;20102;-79
2023/09/23 06:46:08;;;;;;;7.50;2.80;;;20.10;99.90;;;;;;5068984;28;20090;-81
2023/09/23 06:48:35;;;;;;;14.95;3.67;;;20.10;99.90;;;;;;5064453;28;20056;-82
2023/09/23 06:51:03;;;;;;;9.13;3.38;;;20.20;99.90;;;;;;5077004;28;20409;-80
2023/09/23 06:53:31;;;;;;;8.98;3.50;;;20.20;99.90;;;;;;5065134;28;20125;-80
2023/09/23 06:55:58;;;;;;;10.70;2.90;;;20.20;99.90;;;;;;5074248;28;22522;-80
2023/09/23 06:58:25;;;;;;;9.93;3.35;;;20.20;99.90;;;;;;5071617;28;20052;-80
2023/09/23 07:00:54;;;;;;;12.00;3.47;;;20.10;99.90;;;;;;5074505;28;20079;-80
2023/09/23 07:03:21;;;;;;;9.73;3.85;;;20.10;99.90;;;;;;5072037;28;20147;-80
2023/09/23 07:05:48;;;;;;;8.85;2.92;;;20.10;99.90;;;;;;5063523;28;20047;-81
2023/09/23 07:08:17;;;;;;;9.52;3.40;;;20.10;99.90;;;;;;5063556;28;20043;-82
2023/09/23 07:10:45;;;;;;;9.75;2.85;;;20.00;99.90;;;;;;5053082;28;21033;-82
2023/09/23 07:13:12;;;;;;;15.70;3.28;;;20.00;99.90;;;;;;5084749;28;22476;-80
2023/09/23 07:15:40;;;;;;;14.75;3.13;;;20.00;99.90;;;;;;5072201;28;20056;-82
2023/09/23 07:18:09;;;;;;;10.52;3.03;;;20.00;99.90;;;;;;5072149;28;22505;-84
2023/09/23 07:20:36;;;;;;;7.78;3.30;;;19.90;99.90;;;;;;5067112;28;20060;-81
2023/09/23 07:23:04;;;;;;;8.52;2.85;;;19.90;99.90;;;;;;5072341;28;20039;-79
2023/09/23 07:25:39;;;;;;;8.40;3.00;;;20.00;99.90;;;;;;5063894;28;20067;-78
2023/09/23 07:28:06;;;;;;;9.13;3.08;;;19.90;99.90;;;;;;5072757;28;20072;-79
2023/09/23 07:30:35;;;;;;;11.02;2.88;;;20.00;99.90;;;;;;5056823;28;20060;-80
2023/09/23 07:33:03;;;;;;;8.43;3.28;;;20.00;99.90;;;;;;5087980;28;20077;-81
2023/09/23 07:35:31;;;;;;;6.28;2.63;;;20.00;99.90;;;;;;5073824;28;20524;-78
2023/09/23 07:38:02;;;;;;;6.05;2.70;;;20.00;99.90;;;;;;5080779;28;20050;-78
2023/09/23 07:40:30;;;;;;;8.15;3.15;;;20.00;99.90;;;;;;5071544;28;20040;-79
2023/09/23 07:42:58;;;;;;;8.60;3.33;;;20.10;99.90;;;;;;5063787;28;20121;-79
2023/09/23 07:45:25;;;;;;;7.93;3.33;;;20.10;99.90;;;;;;5078241;28;22526;-78
2023/09/23 07:47:52;;;;;;;7.45;3.30;;;20.10;99.90;;;;;;5065820;28;20133;-79
2023/09/23 07:50:20;;;;;;;10.27;3.60;;;20.10;99.90;;;;;;5069099;28;20036;-79
2023/09/23 07:52:48;;;;;;;7.72;2.90;;;20.10;99.90;;;;;;5084075;28;20044;-78
2023/09/23 07:55:15;;;;;;;7.57;2.38;;;20.10;99.90;;;;;;5056404;28;20098;-79
2023/09/23 07:57:42;;;;;;;14.15;4.22;;;20.00;99.90;;;;;;5073143;28;20143;-80
2023/09/23 08:00:10;;;;;;;8.73;3.15;;;20.00;99.90;;;;;;5071425;28;20110;-79
2023/09/23 08:02:39;;;;;;;10.50;3.25;;;20.00;99.90;;;;;;5073937;28;20060;-82
2023/09/23 08:05:07;;;;;;;11.82;3.30;;;20.00;99.90;;;;;;5078168;28;20056;-82
2023/09/23 08:07:35;;;;;;;8.07;2.97;;;20.00;99.90;;;;;;5076155;28;20135;-80
2023/09/23 08:10:04;;;;;;;8.93;2.83;;;20.00;99.90;;;;;;5050917;28;20151;-80
2023/09/23 08:12:35;;;;;;;11.55;3.35;;;20.00;99.90;;;;;;5030900;28;20052;-80
2023/09/23 08:15:03;;;;;;;8.40;2.95;;;20.00;99.90;;;;;;5041366;28;22100;-80
2023/09/23 08:17:31;;;;;;;10.63;3.95;;;20.10;99.90;;;;;;5024045;28;20052;-79
2023/09/23 08:19:59;;;;;;;11.02;3.22;;;20.10;99.90;;;;;;5012877;28;20182;-79
2023/09/23 08:22:26;;;;;;;6.63;3.42;;;20.10;99.90;;;;;;5045854;28;20698;-79
2023/09/23 08:24:53;;;;;;;9.25;3.60;;;20.10;99.90;;;;;;5027253;28;20169;-79
2023/09/23 08:27:21;;;;;;;14.02;3.45;;;20.00;99.90;;;;;;5030756;28;20458;-81
2023/09/23 08:29:49;;;;;;;7.85;3.40;;;20.00;99.90;;;;;;5034059;28;20044;-81
2023/09/23 08:32:18;;;;;;;7.55;2.92;;;20.00;99.90;;;;;;5055138;28;20040;-82
2023/09/23 08:34:45;;;;;;;7.43;2.97;;;20.00;99.90;;;;;;5048850;28;20095;-79
2023/09/23 08:37:12;;;;;;;9.07;3.22;;;20.10;99.90;;;;;;5072851;28;20044;-82
2023/09/23 08:39:39;;;;;;;10.75;3.55;;;20.10;99.90;;;;;;5044725;28;20127;-83
2023/09/23 08:42:07;;;;;;;8.10;3.75;;;20.10;99.90;;;;;;5038377;28;20059;-82
2023/09/23 08:44:35;;;;;;;9.73;3.20;;;20.10;99.90;;;;;;5024398;28;21906;-84
2023/09/23 08:47:02;;;;;;;9.40;3.65;;;20.20;99.90;;;;;;5044054;28;20048;-81
2023/09/23 08:49:30;;;;;;;12.52;4.10;;;20.20;99.90;;;;;;5032864;28;20048;-85
2023/09/23 08:51:59;;;;;;;12.35;3.55;;;20.10;99.90;;;;;;5028323;28;20101;-84
2023/09/23 08:54:28;;;;;;;7.28;3.63;;;20.20;99.90;;;;;;5049274;28;20092;-83
2023/09/23 08:56:56;;;;;;;13.02;3.80;;;20.20;99.90;;;;;;5034443;28;20044;-81
2023/09/23 08:59:26;;;;;;;7.85;3.92;;;20.20;99.90;;;;;;5023788;28;20063;-83
2023/09/23 09:01:56;;;;;;;9.52;3.45;;;20.30;99.90;;;;;;5050251;28;20194;-85
2023/09/23 09:04:24;;;;;;;9.20;3.75;;;20.20;99.90;;;;;;5038398;28;20058;-85
2023/09/23 09:06:53;;;;;;;5.40;3.45;;;20.40;99.90;;;;;;5036466;28;20097;-85
2023/09/23 09:09:20;;;;;;;5.60;2.88;;;20.40;99.90;;;;;;5030736;28;20514;-84
2023/09/23 09:11:49;;;;;;;7.13;2.97;;;20.50;99.90;;;;;;5021811;28;20045;-83
2023/09/23 09:14:17;;;;;;;6.50;2.63;;;20.60;99.90;;;;;;5064285;28;20600;-85
2023/09/23 09:16:45;;;;;;;10.13;3.35;;;20.60;99.90;;;;;;5072473;28;20418;-83
2023/09/23 09:19:12;;;;;;;8.13;2.60;;;20.70;99.90;;;;;;5053793;28;20052;-83
2023/09/23 09:21:41;;;;;;;5.40;2.55;;;20.70;99.90;;;;;;5054576;28;20051;-84
2023/09/23 09:24:09;;;;;;;10.63;2.85;;;20.80;99.90;;;;;;5054806;28;20059;-83
2023/09/23 09:26:38;;;;;;;10.23;3.85;;;20.80;99.90;;;;;;5043516;28;20048;-82
2023/09/23 09:29:05;;;;;;;5.90;2.90;;;20.80;99.90;;;;;;5080751;28;20045;-84
2023/09/23 09:31:34;;;;;;;9.43;3.53;;;20.80;99.90;;;;;;5087053;28;20438;-80
2023/09/23 09:34:11;;;;;;;7.28;3.05;;;20.80;99.90;;;;;;5070446;28;20529;-81
2023/09/23 09:36:39;;;;;;;10.68;3.40;;;20.80;99.90;;;;;;5038431;28;20048;-80
2023/09/23 09:39:10;;;;;;;6.60;2.80;;;20.80;99.90;;;;;;5050477;28;20052;-82
2023/09/23 09:41:49;;;;;;;11.15;3.83;;;20.90;99.90;;;;;;5035598;28;20138;-82
2023/09/23 09:44:20;;;;;;;8.65;2.97;;;20.90;99.90;;;;;;5039857;28;20052;-82
2023/09/23 09:46:50;;;;;;;9.50;2.83;;;20.90;99.90;;;;;;5056332;28;20410;-81
2023/09/23 09:49:18;;;;;;;6.68;2.63;;;20.90;99.90;;;;;;5015725;28;20285;-80
2023/09/23 09:51:51;;;;;;;8.27;3.00;;;20.90;99.90;;;;;;5018885;28;20812;-80
2023/09/23 09:54:21;;;;;;;7.20;2.85;;;20.90;99.90;;;;;;5050215;28;20116;-78
2023/09/23 09:56:52;;;;;;;9.35;3.03;;;21.00;99.90;;;;;;5041880;28;20060;-78
2023/09/23 09:59:27;;;;;;;10.40;3.15;;;21.10;99.90;;;;;;5034535;28;20121;-78
2023/09/23 10:01:59;;;;;;;8.35;2.83;;;21.10;99.90;;;;;;5072247;28;20138;-78
2023/09/23 10:04:34;;;;;;;6.95;2.95;;;21.10;99.90;;;;;;5061542;28;20049;-78
2023/09/23 10:07:07;;;;;;;5.68;3.30;;;21.10;99.90;;;;;;5050146;28;20105;-82
2023/09/23 10:09:38;;;;;;;8.80;2.60;;;21.10;99.90;;;;;;5060266;28;20059;-82
2023/09/23 10:12:07;;;;;;;5.95;2.10;;;21.20;99.90;;;;;;5067489;28;20703;-79
2023/09/23 10:14:34;;;;;;;8.48;3.45;;;21.40;99.90;;;;;;5059317;28;20049;-80
2023/09/23 10:17:03;;;;;;;6.00;2.22;;;21.40;99.90;;;;;;5068935;28;20713;-80
2023/09/23 10:19:32;;;;;;;7.38;2.60;;;21.50;99.90;;;;;;5070007;28;20065;-79
2023/09/23 10:22:11;;;;;;;4.90;2.45;;;21.60;99.90;;;;;;5089288;28;20040;-79
2023/09/23 10:24:38;;;;;;;5.65;2.30;;;21.70;99.90;;;;;;5070783;28;20060;-79
2023/09/23 10:27:06;;;;;;;6.10;2.28;;;21.60;99.90;;;;;;5067824;28;20055;-79
2023/09/23 10:29:47;;;;;;;6.57;3.10;;;21.60;99.90;;;;;;5068428;28;20051;-80
2023/09/23 10:32:16;;;;;;;4.65;2.28;;;21.60;99.90;;;;;;5063197;28;20048;-81
2023/09/23 10:34:53;;;;;;;6.07;1.92;;;21.80;99.90;;;;;;5077155;28;20048;-80
2023/09/23 10:37:31;;;;;;;3.53;1.90;;;21.60;99.90;;;;;;5077936;28;20044;-79
2023/09/23 10:40:12;;;;;;;6.03;2.30;;;21.60;99.90;;;;;;5073339;28;20049;-79
2023/09/23 10:42:44;;;;;;;5.95;1.98;;;21.50;99.90;;;;;;5091934;28;20104;-78
2023/09/23 10:45:13;;;;;;;8.20;2.72;;;21.40;99.90;;;;;;5081163;28;20055;-80
2023/09/23 10:47:43;;;;;;;6.20;2.25;;;21.40;99.90;;;;;;5080097;28;20068;-79
2023/09/23 10:50:11;;;;;;;5.38;2.80;;;21.40;99.90;;;;;;5031219;28;20048;-79
2023/09/23 10:52:39;;;;;;;6.57;2.42;;;21.30;99.90;;;;;;5014338;28;20510;-79
2023/09/23 10:55:09;;;;;;;6.85;2.97;;;21.30;99.90;;;;;;5045728;28;20051;-79
2023/09/23 10:57:36;;;;;;;5.03;2.55;;;21.30;99.90;;;;;;5041945;28;20048;-79
2023/09/23 11:00:25;;;;;;;5.47;2.00;;;21.40;99.90;;;;;;5049387;28;20285;-79
2023/09/23 11:02:52;;;;;;;5.10;2.20;;;21.50;99.90;;;;;;5038555;28;20060;-78
2023/09/23 11:05:22;;;;;;;4.60;1.40;;;21.60;99.90;;;;;;5038607;28;20142;-79
2023/09/23 11:07:56;;;;;;;3.10;1.35;;;21.70;99.90;;;;;;5053016;28;22253;-79
2023/09/23 11:10:23;;;;;;;3.60;1.35;;;21.90;99.90;;;;;;5049661;28;20037;-80
2023/09/23 11:12:54;;;;;;;2.83;1.60;;;22.10;99.90;;;;;;5027730;28;20047;-80
2023/09/23 11:15:22;;;;;;;4.13;1.45;;;22.20;99.90;;;;;;5045153;28;20426;-80
2023/09/23 11:17:54;;;;;;;4.07;1.63;;;22.20;99.90;;;;;;5044940;28;20552;-80
2023/09/23 11:20:32;;;;;;;4.10;1.42;;;22.20;99.90;;;;;;5075034;28;20052;-79
2023/09/23 11:23:05;;;;;;;3.58;1.63;;;22.10;99.90;;;;;;5076108;28;20499;-79
2023/09/23 11:25:41;;;;;;;3.20;1.45;;;22.00;99.90;;;;;;5083906;28;20048;-80
2023/09/23 11:28:20;;;;;;;2.55;1.35;;;21.90;99.90;;;;;;5075585;28;20471;-80
2023/09/23 11:30:48;;;;;;;3.17;1.75;;;21.90;99.90;;;;;;5077101;28;20080;-80
2023/09/23 11:33:15;;;;;;;4.63;1.65;;;21.90;99.90;;;;;;5078534;28;20066;-79
2023/09/23 11:35:44;;;;;;;4.07;2.00;;;21.90;99.90;;;;;;5083572;28;20053;-79
2023/09/23 11:38:11;;;;;;;5.50;1.67;;;21.90;99.90;;;;;;5082985;28;22566;-80
2023/09/23 11:40:40;;;;;;;9.85;2.90;;;21.90;99.90;;;;;;5077813;28;20055;-79
2023/09/23 11:43:07;;;;;;;7.32;3.13;;;21.90;99.90;;;;;;5076158;28;20131;-81
2023/09/23 11:45:34;;;;;;;8.43;4.70;;;21.70;99.90;;;;;;5081112;28;20048;-78
2023/09/23 11:48:06;;;;;;;6.85;5.10;;;21.80;99.90;;;;;;5072857;28;20045;-79
2023/09/23 11:50:33;;;;;;;6.53;3.87;;;21.90;99.90;;;;;;5073169;28;20060;-80
2023/09/23 11:53:00;;;;;;;10.07;5.15;;;22.20;99.90;;;;;;5078847;28;20116;-80
2023/09/23 11:55:27;;;;;;;8.38;5.25;;;22.20;99.90;;;;;;5067214;28;20422;-78
2023/09/23 11:57:54;;;;;;;6.57;4.45;;;22.10;99.90;;;;;;5084577;28;20059;-81
2023/09/23 12:00:21;;;;;;;7.57;4.00;;;22.10;99.90;;;;;;5067054;28;20417;-80
2023/09/23 12:02:48;;;;;;;6.50;4.25;;;22.00;99.90;;;;;;5083835;28;20141;-79
2023/09/23 12:05:20;;;;;;;6.80;4.55;;;22.10;99.90;;;;;;5058498;28;20052;-79
2023/09/23 12:07:48;;;;;;;5.70;3.92;;;22.10;99.90;;;;;;5067900;28;20048;-79
2023/09/23 12:10:15;;;;;;;5.30;3.03;;;22.10;99.90;;;;;;5074662;28;20040;-79
2023/09/23 12:12:45;;;;;;;5.45;3.42;;;22.00;99.90;;;;;;5064469;28;20049;-79
2023/09/23 12:15:12;;;;;;;4.65;3.20;;;22.00;99.90;;;;;;5077008;28;20040;-79
2023/09/23 12:17:39;;;;;;;4.32;2.58;;;21.90;99.90;;;;;;5066826;28;20046;-80
2023/09/23 12:20:11;;;;;;;6.95;3.05;;;21.80;99.90;;;;;;5080784;28;20049;-79
2023/09/23 12:22:39;;;;;;;;;;;21.70;99.90;;;;;;5073523;28;20060;-79
2023/09/23 12:25:06;;;;;;;4.60;2.45;;;21.60;99.90;;;;;;5088710;28;19920;-80
2023/09/23 12:27:34;;;;;;;4.75;2.30;;;21.50;99.90;;;;;;5071878;28;20036;-79
2023/09/23 12:30:01;;;;;;;4.13;2.53;;;21.60;99.90;;;;;;5077213;28;20054;-80
2023/09/23 12:32:30;;;;;;;4.97;2.45;;;21.60;99.90;;;;;;5066148;28;20045;-80
2023/09/23 12:34:57;;;;;;;5.45;3.03;;;21.60;99.90;;;;;;5075936;28;22477;-79
2023/09/23 12:37:27;;;;;;;6.32;3.13;;;21.40;99.90;;;;;;5065052;28;20056;-80
2023/09/23 12:39:55;;;;;;;7.50;3.72;;;21.30;99.90;;;;;;5078426;28;20044;-79
2023/09/23 12:42:23;;;;;;;7.28;3.63;;;21.20;99.90;;;;;;5075112;28;20487;-79
2023/09/23 12:44:50;;;;;;;5.53;3.38;;;21.10;99.90;;;;;;5084482;28;20135;-80
2023/09/23 12:47:17;;;;;;;5.88;3.10;;;21.20;99.90;;;;;;5064113;28;20139;-80
2023/09/23 12:49:45;;;;;;;8.60;4.30;;;21.20;99.90;;;;;;5090230;28;20055;-80
2023/09/23 12:52:12;;;;;;;4.30;3.47;;;21.20;99.90;;;;;;5086394;28;22414;-81